Time;durP1;ratioP1;P1;durP2;ratioP2;P2;SDS_P1;SDS_P2;PMS_P1;PMS_P2;Temp;Humidity;BMP_temperature;BMP_pressure;BME280_temperature;BME280_humidity;BME280_pressure;Samples;Min_cycle;Max_cycle;Signal;HPM_P1;HPM_P2
2021/12/17 00:05:01;;;;;;;18.33;10.57;;;;;;;;;;5065221;28;20064;-70
2021/12/17 00:07:28;;;;;;;23.65;11.30;;;;;;;;;;5067846;28;20051;-70
2021/12/17 00:09:56;;;;;;;26.58;10.60;;;;;;;;;;5066814;28;20041;-70
2021/12/17 00:12:23;;;;;;;24.05;9.50;;;;;;;;;;5066746;28;20036;-70
2021/12/17 00:14:50;;;;;;;25.02;11.32;;;;;;;;;;5060450;28;20851;-70
2021/12/17 00:17:21;;;;;;;22.30;10.70;;;;;;;;;;5064876;28;20041;-70
2021/12/17 00:50:29;;;;;;;19.95;9.07;;;;;;;;;;5062521;28;20080;-71
2021/12/17 00:52:55;;;;;;;20.23;9.80;;;;;;;;;;5066221;28;20055;-71
2021/12/17 00:55:21;;;;;;;22.63;10.45;;;;;;;;;;5067288;28;20412;-71
2021/12/17 00:57:47;;;;;;;24.02;10.85;;;;;;;;;;5065996;28;20037;-71
2021/12/17 01:00:15;;;;;;;21.67;10.38;;;;;;;;;;5062840;28;20059;-71
2021/12/17 01:02:42;;;;;;;23.55;10.93;;;;;;;;;;5066737;28;20505;-71
2021/12/17 01:05:12;;;;;;;23.50;10.93;;;;;;;;;;5066963;28;20064;-71
2021/12/17 01:07:40;;;;;;;25.90;11.02;;;;;;;;;;5065236;28;20119;-71
2021/12/17 01:10:08;;;;;;;23.20;10.55;;;;;;;;;;5068464;28;20041;-71
2021/12/17 01:12:34;;;;;;;28.70;11.80;;;;;;;;;;5094289;27;20155;-71
2021/12/17 01:15:05;;;;;;;20.33;10.07;;;;;;;;;;5069875;28;20543;-71
2021/12/17 01:17:33;;;;;;;35.45;12.13;;;;;;;;;;5095317;28;20051;-71
2021/12/17 01:25:22;;;;;;;26.52;11.02;;;;;;;;;;5068275;28;20048;-71
2021/12/17 01:36:03;;;;;;;24.55;10.68;;;;;;;;;;5065756;28;20048;-71
2021/12/17 01:43:48;;;;;;;22.98;10.35;;;;;;;;;;5063102;28;20473;-71
2021/12/17 01:46:17;;;;;;;24.13;10.43;;;;;;;;;;5065381;28;20052;-70
2021/12/17 01:48:59;;;;;;;26.50;10.90;;;;;;;;;;5066305;28;20056;-70
2021/12/17 01:57:00;;;;;;;27.85;11.23;;;;;;;;;;5062776;28;20488;-70
2021/12/17 01:59:38;;;;;;;34.08;12.57;;;;;;;;;;5063987;28;20508;-71
2021/12/17 02:02:06;;;;;;;30.15;11.57;;;;;;;;;;5061181;28;20400;-70
2021/12/17 02:04:33;;;;;;;29.15;10.95;;;;;;;;;;5094804;27;20047;-70
2021/12/17 02:07:00;;;;;;;33.10;12.10;;;;;;;;;;5063363;28;20044;-70
2021/12/17 02:21:29;;;;;;;18.40;8.00;;;;;;;;;;5066341;28;20048;-70
2021/12/17 02:28:49;;;;;;;19.65;8.10;;;;;;;;;;5067910;28;20049;-72
2021/12/17 02:33:42;;;;;;;25.15;9.57;;;;;;;;;;5064220;28;20044;-73
2021/12/17 02:36:08;;;;;;;18.95;8.85;;;;;;;;;;5066921;28;20086;-73
2021/12/17 02:38:39;;;;;;;24.70;9.18;;;;;;;;;;5064721;28;20117;-74
2021/12/17 02:46:36;;;;;;;19.58;8.90;;;;;;;;;;5067018;28;20048;-73
2021/12/17 02:49:02;;;;;;;29.90;9.88;;;;;;;;;;5099153;28;20044;-73
2021/12/17 02:51:28;;;;;;;29.88;11.80;;;;;;;;;;5064675;28;20054;-73
2021/12/17 02:53:55;;;;;;;27.10;9.60;;;;;;;;;;5064028;28;20036;-73
2021/12/17 02:56:21;;;;;;;28.30;10.45;;;;;;;;;;5065229;28;20498;-72
2021/12/17 02:58:48;;;;;;;28.25;10.90;;;;;;;;;;5066901;28;20443;-73
2021/12/17 03:01:15;;;;;;;27.23;10.13;;;;;;;;;;5061375;28;20504;-73
2021/12/17 03:03:41;;;;;;;27.83;11.05;;;;;;;;;;5066844;28;20040;-73
2021/12/17 03:06:07;;;;;;;29.17;11.20;;;;;;;;;;5063646;28;20396;-73
2021/12/17 03:08:34;;;;;;;30.52;11.63;;;;;;;;;;5064941;28;20041;-73
2021/12/17 03:11:01;;;;;;;26.75;11.05;;;;;;;;;;5066808;28;20381;-73
2021/12/17 03:13:29;;;;;;;24.17;10.23;;;;;;;;;;5064597;28;20369;-73
2021/12/17 03:16:08;;;;;;;27.25;10.32;;;;;;;;;;5060389;28;20037;-73
2021/12/17 03:24:23;;;;;;;30.90;11.77;;;;;;;;;;5057181;28;20049;-73
2021/12/17 03:26:50;;;;;;;32.85;12.95;;;;;;;;;;5046300;28;20522;-73
2021/12/17 03:29:16;;;;;;;30.55;11.93;;;;;;;;;;5063057;28;20040;-73
2021/12/17 03:31:42;;;;;;;29.75;12.20;;;;;;;;;;5068351;28;20063;-73
2021/12/17 03:34:20;;;;;;;30.77;11.88;;;;;;;;;;5061533;28;20487;-73
2021/12/17 03:36:48;;;;;;;34.55;12.93;;;;;;;;;;5063556;28;20056;-73
2021/12/17 03:39:14;;;;;;;32.92;12.27;;;;;;;;;;5067293;28;20058;-73
2021/12/17 03:41:50;;;;;;;32.55;12.68;;;;;;;;;;5062219;28;20072;-73
2021/12/17 03:44:16;;;;;;;42.78;14.55;;;;;;;;;;5092082;28;20120;-73
2021/12/17 03:46:44;;;;;;;31.52;12.32;;;;;;;;;;5066122;28;20059;-73
2021/12/17 03:49:10;;;;;;;37.40;13.88;;;;;;;;;;5066478;28;20166;-73
2021/12/17 03:51:47;;;;;;;35.38;13.70;;;;;;;;;;5066375;28;20511;-73
2021/12/17 03:54:13;;;;;;;34.17;14.60;;;;;;;;;;5066713;28;20132;-73
2021/12/17 03:56:39;;;;;;;35.35;14.18;;;;;;;;;;5067822;28;20123;-73
2021/12/17 03:59:10;;;;;;;37.25;14.50;;;;;;;;;;5073268;28;20052;-71
2021/12/17 04:01:40;;;;;;;36.85;14.20;;;;;;;;;;5101171;28;20454;-71
2021/12/17 04:04:06;;;;;;;36.10;14.05;;;;;;;;;;5069073;28;20049;-70
2021/12/17 04:06:33;;;;;;;36.78;14.35;;;;;;;;;;5100508;28;20044;-70
2021/12/17 04:08:59;;;;;;;34.83;14.18;;;;;;;;;;5069346;28;20537;-70
2021/12/17 04:11:25;;;;;;;38.83;15.15;;;;;;;;;;5071306;28;20056;-70
2021/12/17 04:13:54;;;;;;;39.47;15.07;;;;;;;;;;5063529;28;20413;-71
2021/12/17 04:16:25;;;;;;;36.45;13.63;;;;;;;;;;5066198;28;20452;-71
2021/12/17 04:18:51;;;;;;;40.33;14.60;;;;;;;;;;5080844;28;20450;-70
2021/12/17 04:21:17;;;;;;;36.90;14.18;;;;;;;;;;5070980;28;20048;-71
2021/12/17 04:23:43;;;;;;;39.42;14.80;;;;;;;;;;5069476;28;20036;-71
2021/12/17 04:26:10;;;;;;;44.72;15.77;;;;;;;;;;5066480;28;20049;-71
2021/12/17 04:28:41;;;;;;;46.65;16.10;;;;;;;;;;5068141;28;20087;-71
2021/12/17 04:31:07;;;;;;;41.72;15.48;;;;;;;;;;5066994;28;20488;-70
2021/12/17 04:33:33;;;;;;;44.95;16.85;;;;;;;;;;5096343;28;20060;-70
2021/12/17 04:35:59;;;;;;;49.17;16.42;;;;;;;;;;5067927;28;20484;-70
2021/12/17 04:38:27;;;;;;;45.63;16.30;;;;;;;;;;5068606;28;20408;-70
2021/12/17 04:40:55;;;;;;;41.83;15.02;;;;;;;;;;5062846;28;20052;-70
2021/12/17 04:57:25;;;;;;;47.97;15.55;;;;;;;;;;5068243;28;20048;-70
2021/12/17 04:59:52;;;;;;;36.78;13.88;;;;;;;;;;5068983;28;20504;-70
2021/12/17 05:02:18;;;;;;;42.00;15.60;;;;;;;;;;5065777;28;20113;-70
2021/12/17 05:04:45;;;;;;;38.85;13.80;;;;;;;;;;5068722;28;20064;-71
2021/12/17 05:07:14;;;;;;;39.00;13.63;;;;;;;;;;5069787;28;20127;-70
2021/12/17 05:23:04;;;;;;;37.60;14.13;;;;;;;;;;5070169;28;20052;-71
2021/12/17 05:25:30;;;;;;;34.63;13.07;;;;;;;;;;5068063;28;20052;-71
2021/12/17 05:28:00;;;;;;;32.92;12.90;;;;;;;;;;5068531;28;20126;-70
2021/12/17 05:30:27;;;;;;;36.72;13.40;;;;;;;;;;5068687;28;20106;-70
2021/12/17 05:32:54;;;;;;;35.13;13.18;;;;;;;;;;5096267;28;20166;-70
2021/12/17 05:35:20;;;;;;;34.13;12.90;;;;;;;;;;5070156;28;20036;-71
2021/12/17 05:37:46;;;;;;;31.73;13.80;;;;;;;;;;5065124;28;20129;-70
2021/12/17 05:40:12;;;;;;;30.48;12.65;;;;;;;;;;5067719;28;20080;-70
2021/12/17 05:42:40;;;;;;;27.98;11.75;;;;;;;;;;5095302;28;20057;-70
2021/12/17 05:45:19;;;;;;;31.13;12.68;;;;;;;;;;5068519;28;20044;-70
2021/12/17 05:47:45;;;;;;;31.52;11.57;;;;;;;;;;5067655;28;20040;-70
2021/12/17 05:50:11;;;;;;;37.45;12.55;;;;;;;;;;5065344;28;20507;-70
2021/12/17 05:52:37;;;;;;;32.08;12.50;;;;;;;;;;5069797;28;20126;-71
2021/12/17 05:55:03;;;;;;;33.03;13.38;;;;;;;;;;5060067;28;20051;-70
2021/12/17 05:57:29;;;;;;;35.92;12.85;;;;;;;;;;5066948;28;20041;-71
2021/12/17 05:59:55;;;;;;;42.85;13.15;;;;;;;;;;5070291;28;20365;-70
2021/12/17 06:02:22;;;;;;;35.70;14.07;;;;;;;;;;5067567;28;20048;-70
2021/12/17 06:04:48;;;;;;;33.78;13.95;;;;;;;;;;5065680;28;20036;-70
2021/12/17 06:07:14;;;;;;;38.97;14.07;;;;;;;;;;5068450;28;20044;-71
2021/12/17 06:09:40;;;;;;;38.80;14.35;;;;;;;;;;5068389;28;20059;-71
2021/12/17 06:12:06;;;;;;;40.35;15.32;;;;;;;;;;5064091;28;20480;-71
2021/12/17 06:14:32;;;;;;;45.67;17.38;;;;;;;;;;5069135;28;20097;-71
2021/12/17 06:16:58;;;;;;;41.38;15.40;;;;;;;;;;5067815;28;20041;-71
2021/12/17 06:19:25;;;;;;;44.30;16.02;;;;;;;;;;5068851;28;20048;-71
2021/12/17 06:21:51;;;;;;;43.15;15.65;;;;;;;;;;5068354;28;20495;-71
2021/12/17 06:24:17;;;;;;;46.63;16.08;;;;;;;;;;5065906;28;20044;-70
2021/12/17 06:26:43;;;;;;;48.63;16.67;;;;;;;;;;5069881;28;20048;-70
2021/12/17 06:29:09;;;;;;;50.47;17.17;;;;;;;;;;5069634;28;20457;-71
2021/12/17 06:31:35;;;;;;;46.63;16.52;;;;;;;;;;5066622;28;20076;-70
2021/12/17 06:34:01;;;;;;;47.13;16.17;;;;;;;;;;5073010;28;20071;-70
2021/12/17 06:36:27;;;;;;;42.60;14.85;;;;;;;;;;5071404;28;20478;-70
2021/12/17 06:38:53;;;;;;;41.90;15.43;;;;;;;;;;5070196;28;20044;-70
2021/12/17 06:41:19;;;;;;;45.63;15.18;;;;;;;;;;5065645;28;20045;-70
2021/12/17 06:43:45;;;;;;;46.60;16.98;;;;;;;;;;5063243;28;20067;-70
2021/12/17 06:46:23;;;;;;;50.00;16.63;;;;;;;;;;5065820;28;20087;-71
2021/12/17 06:49:08;;;;;;;46.58;15.45;;;;;;;;;;5068706;28;20045;-71
2021/12/17 07:10:30;;;;;;;32.33;12.60;;;;;;;;;;5067471;28;20048;-70
2021/12/17 07:21:31;;;;;;;28.27;11.60;;;;;;;;;;5065592;28;20083;-70
2021/12/17 07:24:36;;;;;;;27.77;10.98;;;;;;;;;;5063555;28;20064;-71
2021/12/17 07:32:32;;;;;;;28.45;11.38;;;;;;;;;;5090392;28;20471;-71
2021/12/17 07:40:10;;;;;;;41.65;13.95;;;;;;;;;;5063933;28;20416;-70
2021/12/17 07:42:36;;;;;;;34.75;13.30;;;;;;;;;;5063418;28;20510;-70
2021/12/17 07:45:03;;;;;;;37.28;13.52;;;;;;;;;;5070748;28;20040;-70
2021/12/17 07:47:29;;;;;;;39.45;13.93;;;;;;;;;;5066341;28;20064;-70
2021/12/17 07:49:55;;;;;;;33.85;13.50;;;;;;;;;;5069115;28;20454;-70
2021/12/17 07:52:21;;;;;;;37.00;12.75;;;;;;;;;;5067935;28;20045;-70
2021/12/17 07:54:47;;;;;;;28.95;11.95;;;;;;;;;;5064718;28;20045;-70
2021/12/17 07:57:13;;;;;;;32.85;13.15;;;;;;;;;;5069156;28;20138;-70
2021/12/17 07:59:39;;;;;;;25.58;11.20;;;;;;;;;;5068015;28;20080;-71
2021/12/17 08:02:06;;;;;;;30.45;11.93;;;;;;;;;;5068357;28;20048;-70
2021/12/17 08:04:32;;;;;;;31.40;12.38;;;;;;;;;;5069006;28;20044;-71
2021/12/17 08:06:58;;;;;;;32.13;12.18;;;;;;;;;;5068589;28;20041;-70
2021/12/17 08:09:25;;;;;;;25.25;11.07;;;;;;;;;;5065627;28;20048;-70
2021/12/17 08:11:56;;;;;;;28.65;10.85;;;;;;;;;;5061415;28;20500;-70
2021/12/17 08:14:22;;;;;;;21.23;9.02;;;;;;;;;;5092795;28;20052;-70
2021/12/17 08:16:58;;;;;;;21.02;9.00;;;;;;;;;;5064068;28;20040;-70
2021/12/17 08:25:16;;;;;;;19.70;9.02;;;;;;;;;;5062484;28;20036;-70
2021/12/17 08:30:22;;;;;;;19.60;8.77;;;;;;;;;;5067920;28;20147;-70
2021/12/17 08:32:49;;;;;;;18.67;8.23;;;;;;;;;;5062669;28;20052;-70
2021/12/17 08:35:15;;;;;;;18.10;8.88;;;;;;;;;;5094059;28;20045;-70
2021/12/17 08:37:42;;;;;;;20.38;8.70;;;;;;;;;;5058694;28;20080;-71
2021/12/17 08:40:10;;;;;;;18.63;8.70;;;;;;;;;;5094405;28;20049;-70
2021/12/17 08:42:36;;;;;;;19.95;8.80;;;;;;;;;;5097350;28;20056;-70
2021/12/17 08:45:03;;;;;;;18.85;8.50;;;;;;;;;;5092227;28;20403;-70
2021/12/17 08:47:29;;;;;;;16.58;7.55;;;;;;;;;;5061203;28;20494;-71
2021/12/17 08:49:57;;;;;;;16.98;8.40;;;;;;;;;;5063464;28;20044;-70
2021/12/17 08:52:23;;;;;;;18.40;8.23;;;;;;;;;;5070277;28;20036;-70
2021/12/17 08:54:49;;;;;;;18.52;7.95;;;;;;;;;;5063935;28;20055;-70
2021/12/17 08:57:15;;;;;;;14.32;7.65;;;;;;;;;;5098273;28;20049;-71
2021/12/17 08:59:41;;;;;;;21.83;9.25;;;;;;;;;;5070264;28;20091;-72
2021/12/17 09:02:06;;;;;;;16.15;8.30;;;;;;;;;;5069357;28;20083;-72
2021/12/17 09:04:32;;;;;;;16.05;8.95;;;;;;;;;;5070063;28;20470;-72
2021/12/17 09:06:58;;;;;;;15.48;8.38;;;;;;;;;;5096702;28;20060;-71
2021/12/17 09:09:25;;;;;;;14.98;7.90;;;;;;;;;;5069816;28;20377;-71
2021/12/17 09:11:51;;;;;;;12.38;7.88;;;;;;;;;;5098916;28;20136;-71
2021/12/17 09:14:19;;;;;;;14.20;8.13;;;;;;;;;;5066739;28;20101;-71
2021/12/17 09:16:48;;;;;;;13.38;7.53;;;;;;;;;;5067051;28;20060;-71
2021/12/17 09:19:14;;;;;;;14.57;7.70;;;;;;;;;;5063605;28;20055;-71
2021/12/17 09:21:41;;;;;;;15.95;9.40;;;;;;;;;;5066902;28;20044;-71
2021/12/17 09:24:07;;;;;;;13.25;8.38;;;;;;;;;;5067806;28;20046;-71
2021/12/17 09:26:33;;;;;;;13.73;7.80;;;;;;;;;;5093879;28;20472;-71
2021/12/17 09:28:59;;;;;;;12.38;9.38;;;;;;;;;;5070003;28;20093;-71
2021/12/17 09:31:25;;;;;;;13.00;8.85;;;;;;;;;;5092837;28;20052;-71
2021/12/17 09:33:52;;;;;;;13.60;8.30;;;;;;;;;;5065361;28;20086;-71
2021/12/17 09:36:19;;;;;;;11.05;7.85;;;;;;;;;;5068123;28;20051;-71
2021/12/17 09:38:49;;;;;;;9.98;7.45;;;;;;;;;;5101058;28;20040;-72
2021/12/17 09:41:16;;;;;;;11.70;7.35;;;;;;;;;;5066345;28;20052;-71
2021/12/17 09:43:42;;;;;;;12.98;7.75;;;;;;;;;;5065147;28;20040;-71
2021/12/17 09:46:08;;;;;;;21.40;8.82;;;;;;;;;;5063506;28;20044;-71
2021/12/17 09:48:35;;;;;;;18.20;8.77;;;;;;;;;;5090381;28;20123;-71
2021/12/17 09:51:02;;;;;;;17.63;7.97;;;;;;;;;;5091111;28;20178;-72
2021/12/17 09:53:28;;;;;;;17.67;8.80;;;;;;;;;;5058791;28;20409;-72
2021/12/17 09:55:55;;;;;;;15.80;8.48;;;;;;;;;;5098201;28;20496;-72
2021/12/17 09:58:21;;;;;;;13.73;7.32;;;;;;;;;;5067886;28;20139;-72
2021/12/17 10:00:47;;;;;;;23.65;8.52;;;;;;;;;;5067883;28;20071;-71
2021/12/17 10:03:13;;;;;;;23.13;8.77;;;;;;;;;;5069767;28;20055;-72
2021/12/17 10:05:40;;;;;;;18.33;7.55;;;;;;;;;;5064722;28;20080;-72
2021/12/17 10:08:14;;;;;;;15.32;7.40;;;;;;;;;;5092534;28;20095;-72
2021/12/17 10:10:42;;;;;;;14.63;7.25;;;;;;;;;;5090740;28;20884;-72
2021/12/17 10:13:09;;;;;;;12.10;7.80;;;;;;;;;;5059574;28;20098;-72
2021/12/17 10:15:36;;;;;;;13.25;6.95;;;;;;;;;;5063845;28;20040;-72
2021/12/17 10:18:02;;;;;;;10.57;6.35;;;;;;;;;;5097188;28;20109;-72
2021/12/17 10:20:30;;;;;;;12.40;6.95;;;;;;;;;;5056812;28;21597;-71
2021/12/17 10:23:01;;;;;;;14.55;5.70;;;;;;;;;;5097532;28;20040;-72
2021/12/17 10:25:29;;;;;;;10.48;6.25;;;;;;;;;;5095873;28;20048;-71
2021/12/17 10:27:57;;;;;;;10.60;5.60;;;;;;;;;;5060455;28;20063;-72
2021/12/17 10:30:23;;;;;;;12.77;5.38;;;;;;;;;;5061373;28;20178;-72
2021/12/17 10:32:53;;;;;;;8.68;5.10;;;;;;;;;;5096204;28;20074;-71
2021/12/17 10:35:21;;;;;;;7.88;5.40;;;;;;;;;;5065632;28;20134;-71
2021/12/17 10:37:51;;;;;;;11.13;6.10;;;;;;;;;;5063426;28;20111;-72
2021/12/17 10:40:22;;;;;;;7.55;4.70;;;;;;;;;;5069556;28;20070;-72
2021/12/17 10:42:58;;;;;;;5.30;4.70;;;;;;;;;;5061143;28;20547;-72
2021/12/17 10:45:27;;;;;;;7.50;5.40;;;;;;;;;;5067929;28;20110;-72
2021/12/17 10:48:32;;;;;;;9.70;5.53;;;;;;;;;;5060237;28;20048;-72
2021/12/17 10:51:02;;;;;;;9.57;5.78;;;;;;;;;;5058893;28;20067;-73
2021/12/17 10:53:28;;;;;;;11.50;5.35;;;;;;;;;;5056514;28;20076;-71
2021/12/17 10:55:55;;;;;;;9.93;5.43;;;;;;;;;;5104136;28;20052;-72
2021/12/17 10:58:21;;;;;;;9.48;5.50;;;;;;;;;;5064630;28;20110;-71
2021/12/17 11:00:56;;;;;;;9.93;5.05;;;;;;;;;;5062793;28;20194;-72
2021/12/17 11:03:22;;;;;;;10.27;5.15;;;;;;;;;;5062913;28;20463;-71
2021/12/17 11:05:48;;;;;;;6.10;4.20;;;;;;;;;;5053846;28;20040;-71
2021/12/17 11:08:30;;;;;;;7.53;5.22;;;;;;;;;;5066913;28;20080;-71
2021/12/17 11:11:06;;;;;;;7.30;5.93;;;;;;;;;;5057832;28;20202;-71
2021/12/17 11:13:32;;;;;;;4.15;3.70;;;;;;;;;;5097132;28;20484;-72
2021/12/17 11:15:59;;;;;;;6.22;4.97;;;;;;;;;;5065565;28;20048;-72
2021/12/17 11:18:28;;;;;;;6.32;4.97;;;;;;;;;;5058849;28;20045;-71
2021/12/17 11:20:56;;;;;;;8.77;6.18;;;;;;;;;;5095878;28;20045;-72
2021/12/17 11:23:23;;;;;;;4.70;4.30;;;;;;;;;;5064795;28;20399;-72
2021/12/17 11:25:50;;;;;;;4.82;4.32;;;;;;;;;;5059120;28;20041;-70
2021/12/17 11:28:17;;;;;;;4.18;3.78;;;;;;;;;;5064905;28;20044;-71
2021/12/17 11:30:46;;;;;;;4.15;3.75;;;;;;;;;;5061223;28;20041;-71
2021/12/17 11:33:12;;;;;;;3.38;3.08;;;;;;;;;;5065239;28;20405;-71
2021/12/17 11:35:42;;;;;;;2.97;2.70;;;;;;;;;;5060395;28;20048;-71
2021/12/17 11:38:13;;;;;;;2.80;2.60;;;;;;;;;;5062910;28;20044;-71
2021/12/17 11:40:44;;;;;;;3.45;2.40;;;;;;;;;;5063783;28;20045;-71
2021/12/17 11:43:16;;;;;;;3.38;2.72;;;;;;;;;;5094280;28;20044;-72
2021/12/17 11:45:43;;;;;;;4.75;3.10;;;;;;;;;;5056757;28;20040;-72
2021/12/17 11:48:16;;;;;;;5.18;3.28;;;;;;;;;;5066640;28;20044;-71
2021/12/17 11:50:43;;;;;;;4.57;3.70;;;;;;;;;;5064438;28;20082;-71
2021/12/17 11:53:24;;;;;;;5.90;3.80;;;;;;;;;;5092347;28;20051;-72
2021/12/17 11:56:00;;;;;;;5.03;4.07;;;;;;;;;;5058403;28;20068;-71
2021/12/17 11:58:43;;;;;;;4.93;3.80;;;;;;;;;;5063290;28;20769;-72
2021/12/17 12:01:09;;;;;;;6.20;4.32;;;;;;;;;;5094608;28;20724;-71
2021/12/17 12:03:35;;;;;;;6.75;4.20;;;;;;;;;;5094262;28;20110;-71
2021/12/17 12:06:01;;;;;;;7.22;4.22;;;;;;;;;;5062132;28;20115;-71
2021/12/17 12:08:51;;;;;;;4.82;3.72;;;;;;;;;;5061780;28;20074;-71
2021/12/17 12:11:19;;;;;;;5.10;3.95;;;;;;;;;;5095811;28;20049;-71
2021/12/17 12:13:46;;;;;;;4.43;3.80;;;;;;;;;;5088978;28;20076;-70
2021/12/17 12:16:16;;;;;;;7.95;4.60;;;;;;;;;;5089028;28;20045;-71
2021/12/17 12:18:43;;;;;;;7.95;4.97;;;;;;;;;;5070570;28;20047;-71
2021/12/17 12:21:10;;;;;;;6.05;4.60;;;;;;;;;;5098047;28;20456;-71
2021/12/17 12:23:38;;;;;;;5.95;4.22;;;;;;;;;;5068632;28;20040;-71
2021/12/17 12:26:13;;;;;;;4.97;4.32;;;;;;;;;;5069902;28;20165;-71
2021/12/17 12:28:48;;;;;;;4.35;3.92;;;;;;;;;;5065246;28;20037;-71
2021/12/17 12:31:17;;;;;;;5.72;4.00;;;;;;;;;;5094966;27;20097;-71
2021/12/17 12:36:46;;;;;;;6.13;4.20;;;;;;;;;;5068567;28;20051;-71
2021/12/17 12:39:18;;;;;;;4.10;3.72;;;;;;;;;;5093293;28;20045;-71
2021/12/17 12:41:45;;;;;;;4.10;3.63;;;;;;;;;;5096302;28;20381;-71
2021/12/17 12:44:12;;;;;;;3.90;3.45;;;;;;;;;;5068001;28;20400;-71
2021/12/17 12:46:55;;;;;;;5.32;3.50;;;;;;;;;;5068887;28;20139;-71
2021/12/17 12:49:39;;;;;;;4.57;3.85;;;;;;;;;;5069638;28;20049;-71
2021/12/17 12:52:24;;;;;;;5.00;4.10;;;;;;;;;;5098748;28;20044;-71
2021/12/17 12:54:51;;;;;;;8.80;4.95;;;;;;;;;;5097241;28;20174;-71
2021/12/17 12:57:33;;;;;;;8.38;4.50;;;;;;;;;;5067674;28;20546;-71
2021/12/17 13:00:00;;;;;;;7.15;4.80;;;;;;;;;;5062297;28;20453;-71
2021/12/17 13:02:27;;;;;;;7.15;4.85;;;;;;;;;;5065841;28;20481;-71
2021/12/17 13:04:58;;;;;;;7.72;5.00;;;;;;;;;;5067849;28;20490;-71
2021/12/17 13:07:39;;;;;;;6.35;4.70;;;;;;;;;;5069543;28;21888;-71
2021/12/17 13:10:10;;;;;;;5.22;4.63;;;;;;;;;;5061556;28;20540;-71
2021/12/17 13:12:37;;;;;;;6.07;4.47;;;;;;;;;;5065322;28;20057;-71
2021/12/17 13:15:18;;;;;;;8.20;4.72;;;;;;;;;;5099529;28;20048;-71
2021/12/17 13:23:19;;;;;;;7.15;6.40;;;;;;;;;;5063175;28;20088;-71
2021/12/17 13:25:45;;;;;;;8.70;6.25;;;;;;;;;;5061738;28;20081;-71
2021/12/17 13:28:13;;;;;;;8.52;5.95;;;;;;;;;;5100996;28;20040;-71
2021/12/17 13:30:39;;;;;;;7.00;5.55;;;;;;;;;;5100027;28;20553;-71
2021/12/17 13:33:05;;;;;;;8.63;6.68;;;;;;;;;;5066009;28;20048;-71
2021/12/17 13:35:34;;;;;;;8.15;6.20;;;;;;;;;;5064791;28;20053;-71
2021/12/17 13:38:01;;;;;;;7.88;6.28;;;;;;;;;;5063867;28;20124;-71
2021/12/17 13:40:28;;;;;;;9.30;6.22;;;;;;;;;;5062958;28;20049;-71
2021/12/17 13:42:55;;;;;;;8.82;6.20;;;;;;;;;;5059502;28;20044;-71
2021/12/17 13:45:22;;;;;;;9.05;6.32;;;;;;;;;;5062168;28;20076;-71
2021/12/17 13:47:56;;;;;;;10.43;5.88;;;;;;;;;;5064260;28;20047;-71
2021/12/17 13:50:22;;;;;;;8.57;6.47;;;;;;;;;;5064276;28;20049;-70
2021/12/17 13:52:55;;;;;;;8.80;6.10;;;;;;;;;;5099402;28;20102;-71
2021/12/17 13:55:29;;;;;;;9.27;6.32;;;;;;;;;;5064746;28;20052;-71
2021/12/17 13:57:56;;;;;;;8.63;6.22;;;;;;;;;;5099202;28;20052;-71
2021/12/17 14:00:24;;;;;;;9.15;6.43;;;;;;;;;;5061013;28;20434;-71
2021/12/17 14:02:53;;;;;;;8.57;6.57;;;;;;;;;;5091717;28;20060;-71
2021/12/17 14:05:25;;;;;;;8.93;6.88;;;;;;;;;;5061423;28;20391;-71
2021/12/17 14:07:52;;;;;;;10.10;6.95;;;;;;;;;;5070744;28;20040;-71
2021/12/17 14:10:23;;;;;;;10.75;6.32;;;;;;;;;;5066240;28;20044;-71
2021/12/17 14:12:50;;;;;;;11.13;6.28;;;;;;;;;;5064787;28;20288;-71
2021/12/17 14:15:20;;;;;;;10.20;6.47;;;;;;;;;;5060214;28;20049;-71
2021/12/17 14:17:47;;;;;;;9.48;6.70;;;;;;;;;;5060561;28;20090;-71
2021/12/17 14:20:15;;;;;;;10.40;6.40;;;;;;;;;;5068217;28;20537;-71
2021/12/17 14:22:42;;;;;;;7.72;6.30;;;;;;;;;;5097266;28;20488;-71
2021/12/17 14:25:25;;;;;;;9.10;6.30;;;;;;;;;;5059942;28;20163;-71
2021/12/17 14:27:51;;;;;;;8.55;5.85;;;;;;;;;;5064532;28;20161;-71
2021/12/17 14:30:23;;;;;;;7.85;5.57;;;;;;;;;;5063837;28;20037;-71
2021/12/17 14:32:49;;;;;;;7.22;5.78;;;;;;;;;;5063712;28;20048;-71
2021/12/17 14:35:15;;;;;;;9.43;5.45;;;;;;;;;;5067264;28;20074;-71
2021/12/17 14:37:47;;;;;;;8.13;6.18;;;;;;;;;;5065528;28;20045;-71
2021/12/17 14:40:24;;;;;;;8.50;5.97;;;;;;;;;;5061296;28;20049;-71
2021/12/17 14:42:52;;;;;;;8.25;6.18;;;;;;;;;;5061739;28;20624;-71
2021/12/17 14:45:21;;;;;;;10.45;6.07;;;;;;;;;;5068711;28;20052;-71
2021/12/17 14:47:55;;;;;;;9.80;6.40;;;;;;;;;;5062568;28;21971;-71
2021/12/17 15:01:35;;;;;;;9.18;6.30;;;;;;;;;;5060617;28;20048;-71
2021/12/17 15:04:01;;;;;;;8.65;6.80;;;;;;;;;;5094374;28;20132;-71
2021/12/17 15:06:27;;;;;;;9.02;6.55;;;;;;;;;;5095170;28;20127;-71
2021/12/17 15:08:53;;;;;;;7.93;5.78;;;;;;;;;;5066503;28;20043;-71
2021/12/17 15:11:36;;;;;;;7.28;5.55;;;;;;;;;;5092506;28;20044;-71
2021/12/17 15:14:02;;;;;;;8.23;5.72;;;;;;;;;;5062136;28;20041;-71
2021/12/17 15:16:28;;;;;;;8.05;6.13;;;;;;;;;;5066399;28;20047;-71
2021/12/17 15:18:54;;;;;;;9.05;6.80;;;;;;;;;;5062897;28;20033;-71
2021/12/17 15:21:20;;;;;;;9.13;7.72;;;;;;;;;;5062017;28;20399;-71
2021/12/17 15:23:46;;;;;;;10.23;8.30;;;;;;;;;;5067714;28;20119;-71
2021/12/17 15:26:12;;;;;;;11.80;8.35;;;;;;;;;;5066803;28;20090;-71
2021/12/17 15:28:38;;;;;;;11.02;8.70;;;;;;;;;;5094825;28;20085;-71
2021/12/17 15:31:06;;;;;;;13.43;9.32;;;;;;;;;;5091812;28;20041;-71
2021/12/17 15:33:34;;;;;;;13.60;9.30;;;;;;;;;;5064535;28;20056;-71
2021/12/17 15:36:00;;;;;;;11.77;8.43;;;;;;;;;;5062977;28;20059;-71
2021/12/17 15:38:26;;;;;;;12.35;9.02;;;;;;;;;;5060413;28;20062;-71
2021/12/17 15:40:53;;;;;;;11.55;8.85;;;;;;;;;;5053886;28;20048;-72
2021/12/17 15:43:20;;;;;;;14.23;8.70;;;;;;;;;;5059093;28;20037;-72
2021/12/17 15:45:47;;;;;;;17.25;10.52;;;;;;;;;;5086373;28;20076;-71
2021/12/17 15:48:14;;;;;;;12.30;9.88;;;;;;;;;;5063476;28;20051;-71
2021/12/17 15:50:40;;;;;;;15.90;10.23;;;;;;;;;;5086390;28;20132;-72
2021/12/17 15:53:07;;;;;;;17.05;11.02;;;;;;;;;;5057312;28;20052;-72
2021/12/17 15:55:33;;;;;;;14.77;7.97;;;;;;;;;;5063252;28;20040;-72
2021/12/17 15:57:59;;;;;;;13.98;8.02;;;;;;;;;;5056901;28;20060;-73
2021/12/17 16:00:27;;;;;;;16.05;8.25;;;;;;;;;;5094870;28;20059;-70
2021/12/17 16:02:53;;;;;;;15.05;7.60;;;;;;;;;;5052167;28;20053;-70
2021/12/17 16:05:22;;;;;;;15.63;8.15;;;;;;;;;;5060057;28;20055;-69
2021/12/17 16:07:51;;;;;;;14.77;7.65;;;;;;;;;;5062958;28;20049;-70
2021/12/17 16:18:55;;;;;;;18.58;13.32;;;;;;;;;;5053640;28;20507;-70
2021/12/17 16:21:21;;;;;;;16.10;12.52;;;;;;;;;;5059397;28;20461;-70
2021/12/17 16:23:49;;;;;;;13.15;10.65;;;;;;;;;;5056575;28;20094;-70
2021/12/17 16:26:18;;;;;;;13.20;9.40;;;;;;;;;;5059764;28;20519;-70
2021/12/17 16:28:46;;;;;;;14.90;9.60;;;;;;;;;;5059557;28;20048;-71
2021/12/17 16:31:14;;;;;;;17.63;10.07;;;;;;;;;;5096152;28;20044;-70
2021/12/17 16:33:41;;;;;;;16.15;9.80;;;;;;;;;;5060511;28;20420;-73
2021/12/17 16:36:10;;;;;;;15.63;9.85;;;;;;;;;;5098197;28;20990;-75
2021/12/17 16:38:37;;;;;;;17.00;9.10;;;;;;;;;;5100532;28;20048;-75
2021/12/17 16:41:05;;;;;;;15.05;9.20;;;;;;;;;;5097355;28;20049;-76
2021/12/17 16:43:31;;;;;;;13.02;8.10;;;;;;;;;;5096749;28;20041;-73
2021/12/17 16:46:23;;;;;;;12.93;8.85;;;;;;;;;;5067581;28;20041;-74
2021/12/17 16:48:49;;;;;;;15.20;8.18;;;;;;;;;;5064875;28;20111;-72
2021/12/17 16:51:16;;;;;;;14.95;7.15;;;;;;;;;;5097403;28;20048;-73
2021/12/17 16:53:44;;;;;;;12.60;8.02;;;;;;;;;;5091309;28;20044;-74
2021/12/17 16:56:10;;;;;;;12.43;8.02;;;;;;;;;;5062071;28;20055;-74
2021/12/17 16:58:36;;;;;;;10.65;7.40;;;;;;;;;;5062052;28;20439;-74
2021/12/17 17:01:02;;;;;;;13.23;8.60;;;;;;;;;;5095630;28;20062;-73
2021/12/17 17:03:28;;;;;;;13.75;8.88;;;;;;;;;;5066193;28;20040;-73
2021/12/17 17:05:55;;;;;;;16.90;9.48;;;;;;;;;;5100471;28;20047;-73
2021/12/17 17:08:21;;;;;;;15.90;9.00;;;;;;;;;;5067014;28;20102;-74
2021/12/17 17:10:52;;;;;;;15.45;9.25;;;;;;;;;;5096618;28;20488;-73
2021/12/17 17:13:20;;;;;;;14.80;9.18;;;;;;;;;;5064661;28;20045;-74
2021/12/17 17:15:46;;;;;;;14.68;9.38;;;;;;;;;;5068554;28;20060;-75
2021/12/17 17:18:15;;;;;;;14.77;9.68;;;;;;;;;;5079500;28;20105;-76
2021/12/17 17:20:54;;;;;;;21.58;10.20;;;;;;;;;;5098312;28;20040;-74
2021/12/17 17:23:20;;;;;;;18.05;9.57;;;;;;;;;;5065685;28;20194;-76
2021/12/17 17:25:46;;;;;;;14.32;9.73;;;;;;;;;;5096878;28;20548;-75
2021/12/17 17:28:12;;;;;;;16.90;10.60;;;;;;;;;;5100407;28;20041;-75
2021/12/17 17:30:38;;;;;;;16.52;10.43;;;;;;;;;;5061775;28;20369;-75
2021/12/17 17:33:05;;;;;;;13.77;9.30;;;;;;;;;;5064909;28;20044;-75
2021/12/17 17:35:33;;;;;;;13.75;10.10;;;;;;;;;;5069272;28;20117;-75
2021/12/17 17:37:59;;;;;;;16.83;10.48;;;;;;;;;;5068180;28;20127;-75
2021/12/17 17:40:25;;;;;;;17.42;10.93;;;;;;;;;;5097744;28;20060;-75
2021/12/17 17:42:51;;;;;;;13.38;9.95;;;;;;;;;;5061792;28;20062;-75
2021/12/17 17:45:20;;;;;;;15.50;10.90;;;;;;;;;;5062824;28;20075;-75
2021/12/17 17:47:50;;;;;;;15.18;9.95;;;;;;;;;;5089724;28;20040;-76